sensor_id;sensor_type;location;lat;lon;timestamp;pressure;altitude;pressure_sealevel;temperature;humidity
44751;BME280;30477;48.224;11.470;2022-12-18T00:01:16;97119.44;;;-5.17;79.72
44751;BME280;30477;48.224;11.470;2022-12-18T00:03:48;97110.19;;;-5.17;79.90
44751;BME280;30477;48.224;11.470;2022-12-18T00:06:14;97104.28;;;-5.14;79.96
44751;BME280;30477;48.224;11.470;2022-12-18T00:08:44;97101.91;;;-5.25;79.75
44751;BME280;30477;48.224;11.470;2022-12-18T00:11:18;97109.44;;;-5.23;79.93
44751;BME280;30477;48.224;11.470;2022-12-18T00:13:44;97110.34;;;-5.29;79.97
44751;BME280;30477;48.224;11.470;2022-12-18T00:16:15;97111.19;;;-5.28;79.84
44751;BME280;30477;48.224;11.470;2022-12-18T00:18:40;97113.78;;;-5.35;79.86
44751;BME280;30477;48.224;11.470;2022-12-18T00:21:08;97115.50;;;-5.40;79.98
44751;BME280;30477;48.224;11.470;2022-12-18T00:23:35;97113.78;;;-5.36;79.89
44751;BME280;30477;48.224;11.470;2022-12-18T00:26:03;97115.63;;;-5.51;79.71
44751;BME280;30477;48.224;11.470;2022-12-18T00:28:31;97128.31;;;-5.58;79.88
44751;BME280;30477;48.224;11.470;2022-12-18T00:31:08;97135.91;;;-5.58;79.91
44751;BME280;30477;48.224;11.470;2022-12-18T00:33:36;97143.41;;;-5.52;80.00
44751;BME280;30477;48.224;11.470;2022-12-18T00:38:28;97152.03;;;-5.75;79.63
44751;BME280;30477;48.224;11.470;2022-12-18T00:40:53;97147.91;;;-5.85;79.82
44751;BME280;30477;48.224;11.470;2022-12-18T00:43:18;97144.56;;;-5.85;79.91
44751;BME280;30477;48.224;11.470;2022-12-18T00:45:44;97152.13;;;-5.87;79.80
44751;BME280;30477;48.224;11.470;2022-12-18T00:48:09;97150.47;;;-5.89;79.90
44751;BME280;30477;48.224;11.470;2022-12-18T00:50:34;97160.59;;;-5.94;79.66
44751;BME280;30477;48.224;11.470;2022-12-18T00:53:00;97158.25;;;-6.13;79.90
44751;BME280;30477;48.224;11.470;2022-12-18T00:55:25;97151.56;;;-6.17;80.16
44751;BME280;30477;48.224;11.470;2022-12-18T00:57:51;97155.72;;;-6.13;80.13
44751;BME280;30477;48.224;11.470;2022-12-18T01:00:17;97155.69;;;-6.09;80.15
44751;BME280;30477;48.224;11.470;2022-12-18T01:02:43;97159.03;;;-6.04;80.17
44751;BME280;30477;48.224;11.470;2022-12-18T01:05:10;97171.59;;;-6.00;80.09
44751;BME280;30477;48.224;11.470;2022-12-18T01:07:36;97164.06;;;-6.04;80.08
44751;BME280;30477;48.224;11.470;2022-12-18T01:10:02;97173.28;;;-6.05;80.23
44751;BME280;30477;48.224;11.470;2022-12-18T01:12:28;97160.78;;;-6.13;80.26
44751;BME280;30477;48.224;11.470;2022-12-18T01:14:53;97167.41;;;-6.05;80.48
44751;BME280;30477;48.224;11.470;2022-12-18T01:17:19;97174.19;;;-6.14;80.40
44751;BME280;30477;48.224;11.470;2022-12-18T01:19:44;97186.78;;;-6.10;80.51
44751;BME280;30477;48.224;11.470;2022-12-18T01:22:09;97187.63;;;-6.08;80.31
44751;BME280;30477;48.224;11.470;2022-12-18T01:24:35;97197.53;;;-5.93;80.60
44751;BME280;30477;48.224;11.470;2022-12-18T01:27:00;97197.50;;;-5.90;80.70
44751;BME280;30477;48.224;11.470;2022-12-18T01:29:25;97207.53;;;-5.81;80.75
44751;BME280;30477;48.224;11.470;2022-12-18T01:31:54;97208.41;;;-5.85;80.20
44751;BME280;30477;48.224;11.470;2022-12-18T01:34:19;97213.50;;;-5.89;80.33
44751;BME280;30477;48.224;11.470;2022-12-18T01:36:45;97216.09;;;-5.97;80.15
44751;BME280;30477;48.224;11.470;2022-12-18T01:39:12;97216.88;;;-5.94;80.45
44751;BME280;30477;48.224;11.470;2022-12-18T01:41:38;97206.78;;;-5.92;80.42
44751;BME280;30477;48.224;11.470;2022-12-18T01:47:28;97205.06;;;-5.90;80.75
44751;BME280;30477;48.224;11.470;2022-12-18T01:49:57;97211.78;;;-5.87;80.63
44751;BME280;30477;48.224;11.470;2022-12-18T01:52:24;97207.53;;;-5.81;80.84
44751;BME280;30477;48.224;11.470;2022-12-18T01:54:51;97208.41;;;-5.88;80.35
44751;BME280;30477;48.224;11.470;2022-12-18T01:57:17;97210.09;;;-5.87;80.57
44751;BME280;30477;48.224;11.470;2022-12-18T01:59:45;97205.06;;;-5.88;80.64
44751;BME280;30477;48.224;11.470;2022-12-18T02:02:13;97202.53;;;-5.90;80.83
44751;BME280;30477;48.224;11.470;2022-12-18T02:04:39;97201.72;;;-5.91;80.80
44751;BME280;30477;48.224;11.470;2022-12-18T02:07:30;97200.84;;;-5.85;80.81
44751;BME280;30477;48.224;11.470;2022-12-18T02:10:07;97193.28;;;-5.83;80.79
44751;BME280;30477;48.224;11.470;2022-12-18T02:15:43;97187.38;;;-5.84;80.85
44751;BME280;30477;48.224;11.470;2022-12-18T02:18:14;97192.44;;;-5.85;80.94
44751;BME280;30477;48.224;11.470;2022-12-18T02:21:01;97195.88;;;-5.94;80.87
44751;BME280;30477;48.224;11.470;2022-12-18T02:28:35;97189.94;;;-5.87;81.17
44751;BME280;30477;48.224;11.470;2022-12-18T02:31:04;97185.69;;;-5.82;81.37
44751;BME280;30477;48.224;11.470;2022-12-18T02:33:32;97195.88;;;-5.94;80.99
44751;BME280;30477;48.224;11.470;2022-12-18T02:35:59;97184.94;;;-5.93;81.22
44751;BME280;30477;48.224;11.470;2022-12-18T02:38:27;97186.63;;;-5.94;81.32
44751;BME280;30477;48.224;11.470;2022-12-18T02:40:54;97181.59;;;-5.94;81.49
44751;BME280;30477;48.224;11.470;2022-12-18T02:43:20;97182.41;;;-5.92;81.37
44751;BME280;30477;48.224;11.470;2022-12-18T02:45:48;97185.75;;;-5.91;81.37
44751;BME280;30477;48.224;11.470;2022-12-18T02:48:15;97199.16;;;-5.86;81.56
44751;BME280;30477;48.224;11.470;2022-12-18T02:50:45;97191.63;;;-5.87;81.41
44751;BME280;30477;48.224;11.470;2022-12-18T02:53:17;97204.28;;;-5.92;81.57
44751;BME280;30477;48.224;11.470;2022-12-18T02:58:36;97197.53;;;-5.93;81.45
44751;BME280;30477;48.224;11.470;2022-12-18T03:03:55;97199.19;;;-5.91;81.56
44751;BME280;30477;48.224;11.470;2022-12-18T03:06:35;97187.38;;;-5.84;81.77
44751;BME280;30477;48.224;11.470;2022-12-18T03:09:09;97178.16;;;-5.85;81.53
44751;BME280;30477;48.224;11.470;2022-12-18T03:11:41;97188.19;;;-5.82;81.52
44751;BME280;30477;48.224;11.470;2022-12-18T03:14:29;97189.06;;;-5.83;81.66
44751;BME280;30477;48.224;11.470;2022-12-18T03:16:59;97177.31;;;-5.87;81.50
44751;BME280;30477;48.224;11.470;2022-12-18T03:19:28;97178.19;;;-5.89;81.52
44751;BME280;30477;48.224;11.470;2022-12-18T03:21:56;97184.91;;;-5.90;81.53
44751;BME280;30477;48.224;11.470;2022-12-18T03:24:24;97194.97;;;-5.85;81.65
44751;BME280;30477;48.224;11.470;2022-12-18T03:26:54;97184.91;;;-5.90;81.30
44751;BME280;30477;48.224;11.470;2022-12-18T03:29:28;97194.16;;;-5.89;81.58
44751;BME280;30477;48.224;11.470;2022-12-18T03:32:03;97193.31;;;-5.89;81.41
44751;BME280;30477;48.224;11.470;2022-12-18T03:34:35;97197.50;;;-5.90;81.61
44751;BME280;30477;48.224;11.470;2022-12-18T03:37:03;97205.91;;;-5.88;81.53
44751;BME280;30477;48.224;11.470;2022-12-18T03:39:31;97200.84;;;-5.88;81.49
44751;BME280;30477;48.224;11.470;2022-12-18T03:44:45;97193.28;;;-5.83;81.19
44751;BME280;30477;48.224;11.470;2022-12-18T03:47:28;97192.47;;;-5.87;81.32
44751;BME280;30477;48.224;11.470;2022-12-18T03:50:21;97190.72;;;-5.79;81.41
44751;BME280;30477;48.224;11.470;2022-12-18T03:55:13;97204.16;;;-5.78;81.32
44751;BME280;30477;48.224;11.470;2022-12-18T03:57:39;97199.09;;;-5.80;81.47
44751;BME280;30477;48.224;11.470;2022-12-18T04:00:10;97207.53;;;-5.81;81.60
44751;BME280;30477;48.224;11.470;2022-12-18T04:02:41;97204.16;;;-5.77;81.38
44751;BME280;30477;48.224;11.470;2022-12-18T04:05:10;97201.63;;;-5.77;81.33
44751;BME280;30477;48.224;11.470;2022-12-18T04:07:39;97206.72;;;-5.83;81.36
44751;BME280;30477;48.224;11.470;2022-12-18T04:10:06;97203.34;;;-5.83;81.39
44751;BME280;30477;48.224;11.470;2022-12-18T04:12:32;97205.88;;;-5.85;81.50
44751;BME280;30477;48.224;11.470;2022-12-18T04:14:57;97190.72;;;-5.82;81.42
44751;BME280;30477;48.224;11.470;2022-12-18T04:17:23;97194.09;;;-5.83;81.45
44751;BME280;30477;48.224;11.470;2022-12-18T04:19:49;97193.22;;;-5.77;81.38
44751;BME280;30477;48.224;11.470;2022-12-18T04:22:15;97190.66;;;-5.76;81.47
44751;BME280;30477;48.224;11.470;2022-12-18T04:24:40;97203.22;;;-5.68;81.52
44751;BME280;30477;48.224;11.470;2022-12-18T04:27:06;97207.34;;;-5.58;81.46
44751;BME280;30477;48.224;11.470;2022-12-18T04:29:32;97211.50;;;-5.54;81.50
44751;BME280;30477;48.224;11.470;2022-12-18T04:31:58;97216.59;;;-5.58;81.39
44751;BME280;30477;48.224;11.470;2022-12-18T04:34:24;97207.41;;;-5.65;81.22
44751;BME280;30477;48.224;11.470;2022-12-18T04:36:49;97199.84;;;-5.65;81.36
44751;BME280;30477;48.224;11.470;2022-12-18T04:39:14;97197.31;;;-5.65;81.17
44751;BME280;30477;48.224;11.470;2022-12-18T04:41:40;97199.00;;;-5.67;81.36
44751;BME280;30477;48.224;11.470;2022-12-18T04:44:06;97210.75;;;-5.63;81.46
44751;BME280;30477;48.224;11.470;2022-12-18T04:46:31;97219.13;;;-5.63;81.38
44751;BME280;30477;48.224;11.470;2022-12-18T04:48:57;97227.59;;;-5.68;81.35
44751;BME280;30477;48.224;11.470;2022-12-18T04:51:22;97232.66;;;-5.68;81.45
44751;BME280;30477;48.224;11.470;2022-12-18T04:53:47;97235.94;;;-5.60;81.44
44751;BME280;30477;48.224;11.470;2022-12-18T04:56:14;97230.09;;;-5.64;81.40
44751;BME280;30477;48.224;11.470;2022-12-18T04:58:41;97232.56;;;-5.59;81.64
44751;BME280;30477;48.224;11.470;2022-12-18T05:01:08;97224.16;;;-5.58;81.85
44751;BME280;30477;48.224;11.470;2022-12-18T05:03:34;97234.31;;;-5.64;81.12
44751;BME280;30477;48.224;11.470;2022-12-18T05:06:00;97232.63;;;-5.65;81.29
44751;BME280;30477;48.224;11.470;2022-12-18T05:08:25;97243.53;;;-5.65;81.41
44751;BME280;30477;48.224;11.470;2022-12-18T05:11:09;97244.41;;;-5.67;81.38
44751;BME280;30477;48.224;11.470;2022-12-18T05:13:35;97246.09;;;-5.69;81.39
44751;BME280;30477;48.224;11.470;2022-12-18T05:16:01;97241.88;;;-5.64;81.33
44751;BME280;30477;48.224;11.470;2022-12-18T05:18:26;97237.69;;;-5.68;81.54
44751;BME280;30477;48.224;11.470;2022-12-18T05:20:52;97228.44;;;-5.66;81.72
44751;BME280;30477;48.224;11.470;2022-12-18T05:23:19;97230.13;;;-5.68;81.48
44751;BME280;30477;48.224;11.470;2022-12-18T05:28:17;97256.91;;;-5.54;81.70
44751;BME280;30477;48.224;11.470;2022-12-18T05:30:42;97257.75;;;-5.53;81.29
44751;BME280;30477;48.224;11.470;2022-12-18T05:33:08;97248.53;;;-5.59;81.64
44751;BME280;30477;48.224;11.470;2022-12-18T05:35:33;97248.53;;;-5.57;81.39
44751;BME280;30477;48.224;11.470;2022-12-18T05:37:58;97250.22;;;-5.61;81.35
44751;BME280;30477;48.224;11.470;2022-12-18T05:40:24;97242.66;;;-5.61;81.30
44751;BME280;30477;48.224;11.470;2022-12-18T05:42:49;97243.47;;;-5.59;81.59
44751;BME280;30477;48.224;11.470;2022-12-18T05:45:14;97242.66;;;-5.58;81.30
44751;BME280;30477;48.224;11.470;2022-12-18T05:47:40;97243.47;;;-5.59;81.21
44751;BME280;30477;48.224;11.470;2022-12-18T05:50:05;97254.38;;;-5.52;81.34
44751;BME280;30477;48.224;11.470;2022-12-18T05:52:32;97253.50;;;-5.49;81.29
44751;BME280;30477;48.224;11.470;2022-12-18T05:54:57;97255.22;;;-5.55;81.29
44751;BME280;30477;48.224;11.470;2022-12-18T05:57:24;97254.38;;;-5.54;81.35
44751;BME280;30477;48.224;11.470;2022-12-18T05:59:49;97255.16;;;-5.47;81.33
44751;BME280;30477;48.224;11.470;2022-12-18T06:02:14;97256.78;;;-5.38;81.22
44751;BME280;30477;48.224;11.470;2022-12-18T06:04:40;97258.47;;;-5.39;81.25
44751;BME280;30477;48.224;11.470;2022-12-18T06:07:05;97260.22;;;-5.45;81.05
44751;BME280;30477;48.224;11.470;2022-12-18T06:09:30;97264.38;;;-5.43;81.25
44751;BME280;30477;48.224;11.470;2022-12-18T06:11:56;97264.47;;;-5.55;80.97
44751;BME280;30477;48.224;11.470;2022-12-18T06:14:22;97265.41;;;-5.64;81.03
44751;BME280;30477;48.224;11.470;2022-12-18T06:16:50;97265.34;;;-5.58;81.19
44751;BME280;30477;48.224;11.470;2022-12-18T06:19:16;97265.31;;;-5.52;81.13
44751;BME280;30477;48.224;11.470;2022-12-18T06:21:41;97267.03;;;-5.58;81.14
44751;BME280;30477;48.224;11.470;2022-12-18T06:24:07;97255.22;;;-5.55;81.00
44751;BME280;30477;48.224;11.470;2022-12-18T06:26:32;97268.66;;;-5.48;81.24
44751;BME280;30477;48.224;11.470;2022-12-18T06:28:58;97278.75;;;-5.49;81.13
44751;BME280;30477;48.224;11.470;2022-12-18T06:31:23;97277.88;;;-5.47;81.13
44751;BME280;30477;48.224;11.470;2022-12-18T06:33:49;97275.34;;;-5.47;81.00
44751;BME280;30477;48.224;11.470;2022-12-18T06:36:14;97277.97;;;-5.59;80.96
44751;BME280;30477;48.224;11.470;2022-12-18T06:38:41;97288.03;;;-5.56;81.21
44751;BME280;30477;48.224;11.470;2022-12-18T06:41:08;97283.84;;;-5.59;81.00
44751;BME280;30477;48.224;11.470;2022-12-18T06:43:34;97283.00;;;-5.56;81.10
44751;BME280;30477;48.224;11.470;2022-12-18T06:46:00;97287.22;;;-5.58;81.07
44751;BME280;30477;48.224;11.470;2022-12-18T06:48:26;97296.44;;;-5.59;80.97
44751;BME280;30477;48.224;11.470;2022-12-18T06:50:51;97300.66;;;-5.59;80.96
44751;BME280;30477;48.224;11.470;2022-12-18T06:53:17;97300.66;;;-5.61;81.09
44751;BME280;30477;48.224;11.470;2022-12-18T06:55:42;97296.50;;;-5.63;81.02
44751;BME280;30477;48.224;11.470;2022-12-18T06:58:08;97308.28;;;-5.65;81.00
44751;BME280;30477;48.224;11.470;2022-12-18T07:00:33;97313.31;;;-5.65;81.06
44751;BME280;30477;48.224;11.470;2022-12-18T07:02:59;97320.09;;;-5.74;80.90
44751;BME280;30477;48.224;11.470;2022-12-18T07:05:24;97316.75;;;-5.76;81.02
44751;BME280;30477;48.224;11.470;2022-12-18T07:07:50;97313.38;;;-5.78;80.87
44751;BME280;30477;48.224;11.470;2022-12-18T07:10:15;97322.59;;;-5.71;81.25
44751;BME280;30477;48.224;11.470;2022-12-18T07:12:40;97326.78;;;-5.66;81.16
44751;BME280;30477;48.224;11.470;2022-12-18T07:15:06;97332.63;;;-5.60;81.33
44751;BME280;30477;48.224;11.470;2022-12-18T07:17:32;97338.50;;;-5.59;81.17
44751;BME280;30477;48.224;11.470;2022-12-18T07:19:57;97323.41;;;-5.62;81.12
44751;BME280;30477;48.224;11.470;2022-12-18T07:22:25;97335.19;;;-5.64;80.92
44751;BME280;30477;48.224;11.470;2022-12-18T07:24:50;97332.59;;;-5.54;81.27
44751;BME280;30477;48.224;11.470;2022-12-18T07:27:16;97337.63;;;-5.55;81.26
44751;BME280;30477;48.224;11.470;2022-12-18T07:29:41;97330.09;;;-5.58;80.94
44751;BME280;30477;48.224;11.470;2022-12-18T07:32:06;97328.44;;;-5.62;81.27
44751;BME280;30477;48.224;11.470;2022-12-18T07:34:32;97329.28;;;-5.62;81.13
44751;BME280;30477;48.224;11.470;2022-12-18T07:36:57;97325.88;;;-5.58;81.16
44751;BME280;30477;48.224;11.470;2022-12-18T07:39:23;97320.00;;;-5.61;81.04
44751;BME280;30477;48.224;11.470;2022-12-18T07:41:48;97325.09;;;-5.64;81.33
44751;BME280;30477;48.224;11.470;2022-12-18T07:44:33;97329.28;;;-5.63;81.15
44751;BME280;30477;48.224;11.470;2022-12-18T07:46:59;97320.91;;;-5.70;81.15
44751;BME280;30477;48.224;11.470;2022-12-18T07:49:24;97338.53;;;-5.65;81.17
44751;BME280;30477;48.224;11.470;2022-12-18T07:51:49;97332.63;;;-5.61;81.18
44751;BME280;30477;48.224;11.470;2022-12-18T07:54:15;97324.19;;;-5.57;81.09
44751;BME280;30477;48.224;11.470;2022-12-18T07:56:40;97321.72;;;-5.62;80.93
44751;BME280;30477;48.224;11.470;2022-12-18T07:59:07;97335.16;;;-5.61;81.06
44751;BME280;30477;48.224;11.470;2022-12-18T08:01:33;97344.34;;;-5.53;81.12
44751;BME280;30477;48.224;11.470;2022-12-18T08:03:59;97347.72;;;-5.55;81.03
44751;BME280;30477;48.224;11.470;2022-12-18T08:06:24;97343.53;;;-5.59;80.98
44751;BME280;30477;48.224;11.470;2022-12-18T08:08:53;97350.25;;;-5.55;81.02
44751;BME280;30477;48.224;11.470;2022-12-18T08:11:19;97344.31;;;-5.49;81.04
44751;BME280;30477;48.224;11.470;2022-12-18T08:13:44;97356.13;;;-5.52;80.88
44751;BME280;30477;48.224;11.470;2022-12-18T08:16:10;97353.63;;;-5.61;80.85
44751;BME280;30477;48.224;11.470;2022-12-18T08:18:36;97358.69;;;-5.61;80.73
44751;BME280;30477;48.224;11.470;2022-12-18T08:23:35;97356.97;;;-5.57;80.74
44751;BME280;30477;48.224;11.470;2022-12-18T08:26:00;97351.91;;;-5.51;80.85
44751;BME280;30477;48.224;11.470;2022-12-18T08:28:26;97356.13;;;-5.52;80.67
44751;BME280;30477;48.224;11.470;2022-12-18T08:30:52;97361.97;;;-5.51;80.70
44751;BME280;30477;48.224;11.470;2022-12-18T08:33:17;97353.59;;;-5.53;80.58
44751;BME280;30477;48.224;11.470;2022-12-18T08:35:42;97356.16;;;-5.58;80.53
44751;BME280;30477;48.224;11.470;2022-12-18T08:38:07;97356.94;;;-5.48;80.61
44751;BME280;30477;48.224;11.470;2022-12-18T08:40:33;97361.06;;;-5.42;80.46
44751;BME280;30477;48.224;11.470;2022-12-18T08:42:58;97359.41;;;-5.43;80.46
44751;BME280;30477;48.224;11.470;2022-12-18T08:45:42;97368.66;;;-5.44;80.49
44751;BME280;30477;48.224;11.470;2022-12-18T08:48:08;97361.13;;;-5.47;80.53
44751;BME280;30477;48.224;11.470;2022-12-18T08:50:33;97363.66;;;-5.48;80.23
44751;BME280;30477;48.224;11.470;2022-12-18T08:53:00;97361.13;;;-5.48;80.57
44751;BME280;30477;48.224;11.470;2022-12-18T08:55:26;97361.88;;;-5.36;80.52
44751;BME280;30477;48.224;11.470;2022-12-18T08:57:51;97369.47;;;-5.40;80.16
44751;BME280;30477;48.224;11.470;2022-12-18T09:00:17;97374.59;;;-5.49;80.15
44751;BME280;30477;48.224;11.470;2022-12-18T09:02:42;97377.97;;;-5.54;80.33
44751;BME280;30477;48.224;11.470;2022-12-18T09:05:08;97374.59;;;-5.51;80.22
44751;BME280;30477;48.224;11.470;2022-12-18T09:07:34;97380.44;;;-5.43;80.27
44751;BME280;30477;48.224;11.470;2022-12-18T09:09:59;97382.13;;;-5.45;80.15
44751;BME280;30477;48.224;11.470;2022-12-18T09:12:25;97387.22;;;-5.51;80.00
44751;BME280;30477;48.224;11.470;2022-12-18T09:14:50;97372.88;;;-5.44;80.24
44751;BME280;30477;48.224;11.470;2022-12-18T09:17:16;97373.75;;;-5.50;79.98
44751;BME280;30477;48.224;11.470;2022-12-18T09:19:41;97377.16;;;-5.57;79.97
44751;BME280;30477;48.224;11.470;2022-12-18T09:22:06;97369.59;;;-5.57;80.12
44751;BME280;30477;48.224;11.470;2022-12-18T09:24:32;97375.47;;;-5.52;80.13
44751;BME280;30477;48.224;11.470;2022-12-18T09:26:57;97370.44;;;-5.58;80.06
44751;BME280;30477;48.224;11.470;2022-12-18T09:29:23;97366.25;;;-5.59;79.91
44751;BME280;30477;48.224;11.470;2022-12-18T09:31:48;97361.97;;;-5.48;80.10
44751;BME280;30477;48.224;11.470;2022-12-18T09:34:14;97365.34;;;-5.51;80.11
44751;BME280;30477;48.224;11.470;2022-12-18T09:36:39;97359.38;;;-5.37;80.40
44751;BME280;30477;48.224;11.470;2022-12-18T09:39:05;97366.13;;;-5.41;79.80
44751;BME280;30477;48.224;11.470;2022-12-18T09:41:40;97367.81;;;-5.41;80.25
44751;BME280;30477;48.224;11.470;2022-12-18T09:44:18;97360.22;;;-5.37;79.95
44751;BME280;30477;48.224;11.470;2022-12-18T09:46:49;97356.94;;;-5.48;79.82
44751;BME280;30477;48.224;11.470;2022-12-18T09:49:18;97365.25;;;-5.37;80.12
44751;BME280;30477;48.224;11.470;2022-12-18T09:51:51;97356.78;;;-5.30;79.72
44751;BME280;30477;48.224;11.470;2022-12-18T09:54:25;97356.84;;;-5.37;79.67
44751;BME280;30477;48.224;11.470;2022-12-18T09:56:51;97354.38;;;-5.45;79.81
44751;BME280;30477;48.224;11.470;2022-12-18T09:59:22;97357.66;;;-5.31;79.94
44751;BME280;30477;48.224;11.470;2022-12-18T10:01:49;97350.06;;;-5.31;79.51
44751;BME280;30477;48.224;11.470;2022-12-18T10:04:14;97350.03;;;-5.27;79.79
44751;BME280;30477;48.224;11.470;2022-12-18T10:06:57;97349.22;;;-5.30;79.71
44751;BME280;30477;48.224;11.470;2022-12-18T10:14:39;97343.25;;;-5.19;79.48
44751;BME280;30477;48.224;11.470;2022-12-18T10:20:27;97339.03;;;-5.19;79.38
44751;BME280;30477;48.224;11.470;2022-12-18T10:23:05;97344.16;;;-5.25;79.03
44751;BME280;30477;48.224;11.470;2022-12-18T10:26:00;97329.06;;;-5.36;79.18
44751;BME280;30477;48.224;11.470;2022-12-18T10:28:30;97322.31;;;-5.32;79.09
44751;BME280;30477;48.224;11.470;2022-12-18T10:30:55;97317.28;;;-5.31;79.19
44751;BME280;30477;48.224;11.470;2022-12-18T10:33:23;97326.44;;;-5.20;79.46
44751;BME280;30477;48.224;11.470;2022-12-18T10:35:51;97308.00;;;-5.30;79.15
44751;BME280;30477;48.224;11.470;2022-12-18T10:43:20;97316.34;;;-5.23;79.03
44751;BME280;30477;48.224;11.470;2022-12-18T10:48:36;97328.25;;;-5.38;78.78
44751;BME280;30477;48.224;11.470;2022-12-18T10:51:05;97314.69;;;-5.26;79.29
44751;BME280;30477;48.224;11.470;2022-12-18T10:53:33;97318.00;;;-5.16;78.62
44751;BME280;30477;48.224;11.470;2022-12-18T10:55:59;97317.22;;;-5.24;78.60
44751;BME280;30477;48.224;11.470;2022-12-18T10:58:30;97324.78;;;-5.26;78.69
44751;BME280;30477;48.224;11.470;2022-12-18T11:06:16;97342.59;;;-5.41;78.55
44751;BME280;30477;48.224;11.470;2022-12-18T11:08:43;97345.81;;;-5.24;78.79
44751;BME280;30477;48.224;11.470;2022-12-18T11:11:20;97344.88;;;-5.12;78.75
44751;BME280;30477;48.224;11.470;2022-12-18T11:16:21;97348.19;;;-5.04;78.52
44751;BME280;30477;48.224;11.470;2022-12-18T11:18:46;97343.88;;;-4.94;78.58
44751;BME280;30477;48.224;11.470;2022-12-18T11:21:12;97329.53;;;-4.89;78.53
44751;BME280;30477;48.224;11.470;2022-12-18T11:23:47;97326.06;;;-4.80;78.34
44751;BME280;30477;48.224;11.470;2022-12-18T11:26:14;97331.19;;;-4.86;78.21
44751;BME280;30477;48.224;11.470;2022-12-18T11:28:49;97336.34;;;-4.99;78.49
44751;BME280;30477;48.224;11.470;2022-12-18T11:36:52;97331.41;;;-5.11;78.00
44751;BME280;30477;48.224;11.470;2022-12-18T11:42:23;97321.31;;;-5.11;78.23
44751;BME280;30477;48.224;11.470;2022-12-18T11:44:53;97327.06;;;-4.98;78.24
44751;BME280;30477;48.224;11.470;2022-12-18T11:47:32;97320.41;;;-5.04;78.18
44751;BME280;30477;48.224;11.470;2022-12-18T11:50:01;97317.06;;;-5.06;78.18
44751;BME280;30477;48.224;11.470;2022-12-18T11:52:33;97316.25;;;-5.08;77.92
44751;BME280;30477;48.224;11.470;2022-12-18T11:55:10;97311.97;;;-5.03;78.23
44751;BME280;30477;48.224;11.470;2022-12-18T12:00:12;97305.22;;;-5.01;78.24
44751;BME280;30477;48.224;11.470;2022-12-18T12:11:09;97308.53;;;-4.94;77.85
44751;BME280;30477;48.224;11.470;2022-12-18T12:13:48;97299.31;;;-5.00;77.96
44751;BME280;30477;48.224;11.470;2022-12-18T12:16:18;97298.59;;;-5.10;77.63
44751;BME280;30477;48.224;11.470;2022-12-18T12:21:28;97298.69;;;-5.22;77.70
44751;BME280;30477;48.224;11.470;2022-12-18T12:24:07;97290.28;;;-5.25;77.75
44751;BME280;30477;48.224;11.470;2022-12-18T12:32:17;97292.88;;;-5.28;77.92
44751;BME280;30477;48.224;11.470;2022-12-18T12:37:29;97291.91;;;-5.17;77.87
44751;BME280;30477;48.224;11.470;2022-12-18T12:39:59;97283.47;;;-5.14;77.94
44751;BME280;30477;48.224;11.470;2022-12-18T12:42:31;97289.38;;;-5.15;77.71
44751;BME280;30477;48.224;11.470;2022-12-18T12:45:29;97285.25;;;-5.22;77.96
44751;BME280;30477;48.224;11.470;2022-12-18T12:47:59;97287.72;;;-5.16;78.05
44751;BME280;30477;48.224;11.470;2022-12-18T12:50:27;97285.88;;;-5.02;77.95
44751;BME280;30477;48.224;11.470;2022-12-18T12:52:54;97289.31;;;-5.09;77.95
44751;BME280;30477;48.224;11.470;2022-12-18T12:55:27;97284.09;;;-4.94;77.96
44751;BME280;30477;48.224;11.470;2022-12-18T12:57:59;97285.91;;;-5.03;77.68
44751;BME280;30477;48.224;11.470;2022-12-18T13:00:38;97287.63;;;-5.08;77.74
44751;BME280;30477;48.224;11.470;2022-12-18T13:03:12;97291.00;;;-5.08;77.74
44751;BME280;30477;48.224;11.470;2022-12-18T13:05:48;97290.97;;;-5.05;77.55
44751;BME280;30477;48.224;11.470;2022-12-18T13:08:31;97288.47;;;-5.08;77.64
44751;BME280;30477;48.224;11.470;2022-12-18T13:10:58;97296.88;;;-5.11;77.65
44751;BME280;30477;48.224;11.470;2022-12-18T13:13:55;97293.59;;;-5.19;77.73
44751;BME280;30477;48.224;11.470;2022-12-18T13:16:22;97297.81;;;-5.18;77.70
44751;BME280;30477;48.224;11.470;2022-12-18T13:18:53;97300.28;;;-5.13;77.41
44751;BME280;30477;48.224;11.470;2022-12-18T13:21:30;97304.41;;;-5.03;77.75
44751;BME280;30477;48.224;11.470;2022-12-18T13:24:15;97302.72;;;-5.02;77.68
44751;BME280;30477;48.224;11.470;2022-12-18T13:26:41;97296.00;;;-5.05;77.67
44751;BME280;30477;48.224;11.470;2022-12-18T13:29:06;97297.66;;;-5.01;77.53
44751;BME280;30477;48.224;11.470;2022-12-18T13:34:20;97298.69;;;-5.20;77.68
44751;BME280;30477;48.224;11.470;2022-12-18T13:36:46;97292.66;;;-5.07;77.73
44751;BME280;30477;48.224;11.470;2022-12-18T13:41:44;97291.81;;;-5.06;77.62
44751;BME280;30477;48.224;11.470;2022-12-18T13:51:39;97282.66;;;-5.16;77.69
44751;BME280;30477;48.224;11.470;2022-12-18T13:56:45;97271.81;;;-5.26;77.59
44751;BME280;30477;48.224;11.470;2022-12-18T14:01:46;97277.72;;;-5.28;77.80
44751;BME280;30477;48.224;11.470;2022-12-18T14:04:18;97276.91;;;-5.32;77.93
44751;BME280;30477;48.224;11.470;2022-12-18T14:06:43;97279.44;;;-5.34;78.15
44751;BME280;30477;48.224;11.470;2022-12-18T14:09:16;97285.28;;;-5.30;78.02
44751;BME280;30477;48.224;11.470;2022-12-18T14:11:49;97283.59;;;-5.30;78.02
44751;BME280;30477;48.224;11.470;2022-12-18T14:14:17;97283.59;;;-5.26;78.29
44751;BME280;30477;48.224;11.470;2022-12-18T14:16:43;97286.13;;;-5.28;78.51
44751;BME280;30477;48.224;11.470;2022-12-18T14:19:14;97291.13;;;-5.23;78.59
44751;BME280;30477;48.224;11.470;2022-12-18T14:21:46;97294.47;;;-5.18;78.54
44751;BME280;30477;48.224;11.470;2022-12-18T14:24:14;97301.16;;;-5.17;78.47
44751;BME280;30477;48.224;11.470;2022-12-18T14:26:41;97308.78;;;-5.20;78.62
44751;BME280;30477;48.224;11.470;2022-12-18T14:29:20;97302.81;;;-5.15;78.55
44751;BME280;30477;48.224;11.470;2022-12-18T14:31:46;97291.88;;;-5.12;78.72
44751;BME280;30477;48.224;11.470;2022-12-18T14:34:28;97285.97;;;-5.13;78.93
44751;BME280;30477;48.224;11.470;2022-12-18T14:36:54;97291.03;;;-5.13;78.38
44751;BME280;30477;48.224;11.470;2022-12-18T14:39:21;97283.44;;;-5.13;78.55